createdAt,value
2017-06-16T00:00:20.613Z,1005.74
2017-06-16T00:01:29.570Z,1005.69
2017-06-16T00:02:38.616Z,1005.67
2017-06-16T00:03:47.622Z,1005.66
2017-06-16T00:04:56.575Z,1005.72
2017-06-16T00:06:05.534Z,1005.72
2017-06-16T00:07:14.487Z,1005.75
2017-06-16T00:08:23.444Z,1005.79
2017-06-16T00:09:32.410Z,1005.83
2017-06-16T00:10:41.366Z,1005.86
2017-06-16T00:11:50.662Z,1005.86
2017-06-16T00:12:59.618Z,1005.92
2017-06-16T00:14:08.580Z,1005.92
2017-06-16T00:15:17.588Z,1005.9
2017-06-16T00:16:26.578Z,1005.81
2017-06-16T00:17:35.548Z,1005.77
2017-06-16T00:18:44.509Z,1005.82
2017-06-16T00:19:53.465Z,1005.86
2017-06-16T00:21:02.420Z,1005.93
2017-06-16T00:22:11.377Z,1006
2017-06-16T00:23:20.331Z,1006.02
2017-06-16T00:24:29.288Z,1006.07
2017-06-16T00:25:38.242Z,1006.12
2017-06-16T00:26:47.252Z,1006.14
2017-06-16T00:27:56.211Z,1006.17
2017-06-16T00:29:05.166Z,1006.16
2017-06-16T00:30:14.116Z,1006.15
2017-06-16T00:31:23.106Z,1006.18
2017-06-16T00:32:32.158Z,1006.16
2017-06-16T00:33:41.121Z,1006.19
2017-06-16T00:34:50.090Z,1006.13
2017-06-16T00:35:59.465Z,1006.16
2017-06-16T00:37:08.424Z,1006.2
2017-06-16T00:38:17.379Z,1006.15
2017-06-16T00:39:26.334Z,1006.15
2017-06-16T00:40:35.294Z,1006.14
2017-06-16T00:41:44.250Z,1006.14
2017-06-16T00:42:53.207Z,1006.1
2017-06-16T00:44:02.210Z,1006.1
2017-06-16T00:45:11.164Z,1006.18
2017-06-16T00:46:20.120Z,1006.23
2017-06-16T00:47:29.077Z,1006.27
2017-06-16T00:48:38.041Z,1006.34
2017-06-16T00:49:47.054Z,1006.37
2017-06-16T00:50:56.007Z,1006.36
2017-06-16T00:52:04.961Z,1006.35
2017-06-16T00:53:14.001Z,1006.34
2017-06-16T00:54:22.958Z,1006.35
2017-06-16T00:55:31.965Z,1006.36
2017-06-16T00:56:40.920Z,1006.4
2017-06-16T00:57:49.880Z,1006.35
2017-06-16T00:58:58.835Z,1006.41
2017-06-16T01:00:07.800Z,1006.47
2017-06-16T01:01:16.849Z,1006.43
2017-06-16T01:02:25.811Z,1006.44
2017-06-16T01:03:34.769Z,1006.45
2017-06-16T01:04:43.724Z,1006.44
2017-06-16T01:05:52.680Z,1006.45
2017-06-16T01:07:01.816Z,1006.43
2017-06-16T01:08:10.772Z,1006.45
2017-06-16T01:09:19.725Z,1006.46
2017-06-16T01:10:28.774Z,1006.47
2017-06-16T01:11:37.730Z,1006.47
2017-06-16T01:12:46.732Z,1006.51
2017-06-16T01:13:55.696Z,1006.49
2017-06-16T01:15:04.654Z,1006.49
2017-06-16T01:16:13.649Z,1006.47
2017-06-16T01:17:22.601Z,1006.5
2017-06-16T01:18:31.690Z,1006.5
2017-06-16T01:19:40.643Z,1006.51
2017-06-16T01:20:49.608Z,1006.55
2017-06-16T01:21:58.582Z,1006.54
2017-06-16T01:23:07.628Z,1006.57
2017-06-16T01:24:16.633Z,1006.53
2017-06-16T01:25:25.588Z,1006.53
2017-06-16T01:26:34.549Z,1006.56
2017-06-16T01:27:43.511Z,1006.52
2017-06-16T01:28:52.806Z,1006.52
2017-06-16T01:30:01.815Z,1006.42
2017-06-16T01:31:10.772Z,1006.37
2017-06-16T01:32:19.727Z,1006.37
2017-06-16T01:33:28.682Z,1006.4
2017-06-16T01:34:37.645Z,1006.43
2017-06-16T01:35:46.651Z,1006.45
2017-06-16T01:36:55.613Z,1006.43
2017-06-16T01:38:04.567Z,1006.42
2017-06-16T01:39:13.528Z,1006.38
2017-06-16T01:40:22.484Z,1006.36
2017-06-16T01:41:31.816Z,1006.41
2017-06-16T01:42:40.771Z,1006.42
2017-06-16T01:43:49.739Z,1006.43
2017-06-16T01:44:58.731Z,1006.44
2017-06-16T01:46:07.696Z,1006.42
2017-06-16T01:47:16.654Z,1006.46
2017-06-16T01:48:25.612Z,1006.42
2017-06-16T01:49:34.569Z,1006.48
2017-06-16T01:50:43.527Z,1006.51
2017-06-16T01:51:52.825Z,1006.49
2017-06-16T01:53:01.832Z,1006.52
2017-06-16T01:54:10.793Z,1006.51
2017-06-16T01:55:19.750Z,1006.52
2017-06-16T01:56:28.704Z,1006.51
2017-06-16T01:57:37.655Z,1006.56
2017-06-16T01:58:46.610Z,1006.55
2017-06-16T01:59:55.566Z,1006.53
2017-06-16T02:01:04.536Z,1006.52
2017-06-16T02:02:13.491Z,1006.53
2017-06-16T02:03:22.443Z,1006.55
2017-06-16T02:04:31.398Z,1006.52
2017-06-16T02:05:40.364Z,1006.5
2017-06-16T02:06:49.323Z,1006.47
2017-06-16T02:07:58.275Z,1006.48
2017-06-16T02:09:07.228Z,1006.46
2017-06-16T02:10:16.235Z,1006.44
2017-06-16T02:11:25.234Z,1006.47
2017-06-16T02:12:34.186Z,1006.44
2017-06-16T02:13:43.146Z,1006.43
2017-06-16T02:14:52.105Z,1006.44
2017-06-16T02:16:01.062Z,1006.47
2017-06-16T02:17:10.023Z,1006.5
2017-06-16T02:18:18.982Z,1006.46
2017-06-16T02:19:27.938Z,1006.43
2017-06-16T02:20:36.894Z,1006.45
2017-06-16T02:21:45.899Z,1006.4
2017-06-16T02:22:54.857Z,1006.44
2017-06-16T02:24:03.814Z,1006.46
2017-06-16T02:25:12.770Z,1006.44
2017-06-16T02:26:21.724Z,1006.41
2017-06-16T02:27:30.727Z,1006.48
2017-06-16T02:28:39.686Z,1006.45
2017-06-16T02:29:48.646Z,1006.46
2017-06-16T02:30:57.607Z,1006.52
2017-06-16T02:32:06.662Z,1006.47
2017-06-16T02:33:15.992Z,1006.47
2017-06-16T02:34:24.945Z,1006.46
2017-06-16T02:35:33.898Z,1006.51
2017-06-16T02:36:42.860Z,1006.52
2017-06-16T02:37:51.818Z,1006.45
2017-06-16T02:39:00.821Z,1006.45
2017-06-16T02:40:09.778Z,1006.49
2017-06-16T02:41:18.735Z,1006.4
2017-06-16T02:42:27.689Z,1006.37
2017-06-16T02:43:36.649Z,1006.38
2017-06-16T02:44:45.979Z,1006.36
2017-06-16T02:45:54.934Z,1006.34
2017-06-16T02:47:03.974Z,1006.31
2017-06-16T02:48:12.938Z,1006.36
2017-06-16T02:49:21.896Z,1006.36
2017-06-16T02:50:30.907Z,1006.29
2017-06-16T02:51:39.865Z,1006.31
2017-06-16T02:52:48.821Z,1006.27
2017-06-16T02:53:57.775Z,1006.29
2017-06-16T02:55:06.729Z,1006.26
2017-06-16T02:56:15.860Z,1006.28
2017-06-16T02:57:24.816Z,1006.27
2017-06-16T02:58:33.771Z,1006.27
2017-06-16T02:59:42.730Z,1006.27
2017-06-16T03:00:52.050Z,1006.26
2017-06-16T03:02:01.013Z,1006.29
2017-06-16T03:03:09.977Z,1006.29
2017-06-16T03:04:18.930Z,1006.3
2017-06-16T03:05:27.887Z,1006.26
2017-06-16T03:06:36.843Z,1006.27
2017-06-16T03:07:45.848Z,1006.31
2017-06-16T03:08:54.808Z,1006.3
2017-06-16T03:10:03.761Z,1006.28
2017-06-16T03:11:12.717Z,1006.28
2017-06-16T03:12:21.669Z,1006.24
2017-06-16T03:13:30.765Z,1006.28
2017-06-16T03:14:39.721Z,1006.26
2017-06-16T03:15:48.679Z,1006.3
2017-06-16T03:16:57.635Z,1006.28
2017-06-16T03:18:06.589Z,1006.36
2017-06-16T03:19:15.682Z,1006.36
2017-06-16T03:20:24.644Z,1006.38
2017-06-16T03:21:33.689Z,1006.41
2017-06-16T03:22:42.643Z,1006.38
2017-06-16T03:23:51.600Z,1006.42
2017-06-16T03:25:01.262Z,1006.4
2017-06-16T03:26:10.218Z,1006.41
2017-06-16T03:27:19.265Z,1006.39
2017-06-16T03:28:28.224Z,1006.39
2017-06-16T03:29:37.182Z,1006.33
2017-06-16T03:30:46.188Z,1006.43
2017-06-16T03:31:55.148Z,1006.4
2017-06-16T03:33:04.105Z,1006.39
2017-06-16T03:34:13.060Z,1006.43
2017-06-16T03:35:22.019Z,1006.47
2017-06-16T03:36:31.029Z,1006.43
2017-06-16T03:37:39.984Z,1006.41
2017-06-16T03:38:50.206Z,1006.42
2017-06-16T03:39:59.167Z,1006.45
2017-06-16T03:41:08.127Z,1006.46
2017-06-16T03:42:17.089Z,1006.42
2017-06-16T03:43:26.051Z,1006.48
2017-06-16T03:44:35.008Z,1006.45
2017-06-16T03:45:43.956Z,1006.49
2017-06-16T03:46:52.914Z,1006.46
2017-06-16T03:48:02.011Z,1006.51
2017-06-16T03:49:10.968Z,1006.51
2017-06-16T03:50:19.927Z,1006.5
2017-06-16T03:51:28.881Z,1006.5
2017-06-16T03:52:37.834Z,1006.51
2017-06-16T03:53:46.841Z,1006.49
2017-06-16T03:54:55.883Z,1006.52
2017-06-16T03:56:04.837Z,1006.54
2017-06-16T03:57:13.794Z,1006.58
2017-06-16T03:58:22.752Z,1006.55
2017-06-16T03:59:32.077Z,1006.56
2017-06-16T04:00:41.036Z,1006.57
2017-06-16T04:01:49.995Z,1006.62
2017-06-16T04:02:58.951Z,1006.6
2017-06-16T04:04:07.915Z,1006.61
2017-06-16T04:05:16.941Z,1006.61
2017-06-16T04:06:25.900Z,1006.57
2017-06-16T04:07:34.853Z,1006.62
2017-06-16T04:08:43.806Z,1006.63
2017-06-16T04:09:52.765Z,1006.6
2017-06-16T04:11:01.777Z,1006.63
2017-06-16T04:12:10.739Z,1006.65
2017-06-16T04:13:19.697Z,1006.64
2017-06-16T04:14:28.655Z,1006.66
2017-06-16T04:15:37.654Z,1006.68
2017-06-16T04:16:46.607Z,1006.73
2017-06-16T04:17:55.563Z,1006.72
2017-06-16T04:19:04.518Z,1006.71
2017-06-16T04:20:13.520Z,1006.7
2017-06-16T04:21:22.474Z,1006.74
2017-06-16T04:22:31.570Z,1006.77
2017-06-16T04:23:40.530Z,1006.78
2017-06-16T04:24:49.576Z,1006.77
2017-06-16T04:25:58.531Z,1006.79
2017-06-16T04:27:07.488Z,1006.76
2017-06-16T04:28:16.493Z,1006.75
2017-06-16T04:29:25.536Z,1006.77
2017-06-16T04:30:34.492Z,1006.78
2017-06-16T04:31:43.444Z,1006.81
2017-06-16T04:32:52.734Z,1006.81
2017-06-16T04:34:01.776Z,1006.84
2017-06-16T04:35:10.736Z,1006.89
2017-06-16T04:36:19.691Z,1006.88
2017-06-16T04:37:28.649Z,1006.88
2017-06-16T04:38:37.607Z,1006.85
2017-06-16T04:39:46.617Z,1006.89
2017-06-16T04:40:55.570Z,1006.91
2017-06-16T04:42:04.613Z,1006.91
2017-06-16T04:43:13.570Z,1006.89
2017-06-16T04:44:22.527Z,1006.93
2017-06-16T04:45:31.661Z,1006.97
2017-06-16T04:46:40.621Z,1006.92
2017-06-16T04:47:49.601Z,1006.97
2017-06-16T04:48:58.566Z,1006.94
2017-06-16T04:50:07.520Z,1006.92
2017-06-16T04:51:16.527Z,1006.94
2017-06-16T04:52:25.484Z,1006.91
2017-06-16T04:53:34.443Z,1006.93
2017-06-16T04:54:43.404Z,1006.85
2017-06-16T04:55:52.359Z,1006.88
2017-06-16T04:57:01.366Z,1006.86
2017-06-16T04:58:10.323Z,1006.92
2017-06-16T04:59:19.276Z,1006.9
2017-06-16T05:00:28.235Z,1006.87
2017-06-16T05:01:37.202Z,1006.85
2017-06-16T05:02:46.209Z,1006.9
2017-06-16T05:03:55.168Z,1006.87
2017-06-16T05:05:04.128Z,1006.91
2017-06-16T05:06:13.410Z,1006.93
2017-06-16T05:07:22.472Z,1007.04
2017-06-16T05:08:31.480Z,1007
2017-06-16T05:09:40.601Z,1007.03
2017-06-16T05:10:49.571Z,1007
2017-06-16T05:11:58.527Z,1007
2017-06-16T05:13:07.648Z,1007.03
2017-06-16T05:14:17.041Z,1007.02
2017-06-16T05:15:25.999Z,1007.08
2017-06-16T05:16:35.074Z,1007.08
2017-06-16T05:17:44.154Z,1007.02
2017-06-16T05:18:53.289Z,1007.02
2017-06-16T05:20:02.248Z,1007.11
2017-06-16T05:21:11.210Z,1007.11
2017-06-16T05:22:20.225Z,1007.08
2017-06-16T05:23:29.187Z,1007.12
2017-06-16T05:24:38.222Z,1007.12
2017-06-16T05:25:47.183Z,1007.12
2017-06-16T05:26:56.138Z,1007.09
2017-06-16T05:28:05.094Z,1007.1
2017-06-16T05:29:14.132Z,1007.15
2017-06-16T05:30:23.182Z,1007.16
2017-06-16T05:31:32.593Z,1007.16
2017-06-16T05:32:41.721Z,1007.09
2017-06-16T05:33:50.679Z,1007.17
2017-06-16T05:34:59.670Z,1007.2
2017-06-16T05:36:08.629Z,1007.25
2017-06-16T05:37:17.673Z,1007.22
2017-06-16T05:38:26.663Z,1007.25
2017-06-16T05:39:35.622Z,1007.2
2017-06-16T05:40:44.577Z,1007.2
2017-06-16T05:41:53.539Z,1007.2
2017-06-16T05:43:02.498Z,1007.22
2017-06-16T05:44:11.488Z,1007.26
2017-06-16T05:45:20.445Z,1007.24
2017-06-16T05:46:29.428Z,1007.28
2017-06-16T05:47:38.561Z,1007.25
2017-06-16T05:48:47.583Z,1007.32
2017-06-16T05:49:56.699Z,1007.25
2017-06-16T05:51:05.783Z,1007.35
2017-06-16T05:52:14.758Z,1007.32
2017-06-16T05:53:23.838Z,1007.37
2017-06-16T05:54:32.958Z,1007.48
2017-06-16T05:55:42.145Z,1007.4
2017-06-16T05:56:51.284Z,1007.42
2017-06-16T05:58:00.240Z,1007.47
2017-06-16T05:59:09.197Z,1007.46
2017-06-16T06:00:18.207Z,1007.5
2017-06-16T06:01:27.161Z,1007.52
2017-06-16T06:02:36.205Z,1007.57
2017-06-16T06:03:45.162Z,1007.51
2017-06-16T06:04:54.206Z,1007.52
2017-06-16T06:06:03.250Z,1007.52
2017-06-16T06:07:12.204Z,1007.52
2017-06-16T06:08:21.160Z,1007.44
2017-06-16T06:09:30.158Z,1007.45
2017-06-16T06:10:39.117Z,1007.42
2017-06-16T06:11:48.129Z,1007.39
2017-06-16T06:12:57.087Z,1007.47
2017-06-16T06:14:06.039Z,1007.49
2017-06-16T06:15:14.993Z,1007.5
2017-06-16T06:16:23.945Z,1007.53
2017-06-16T06:17:32.906Z,1007.48
2017-06-16T06:18:41.862Z,1007.54
2017-06-16T06:19:50.820Z,1007.5
2017-06-16T06:20:59.780Z,1007.5
2017-06-16T06:22:08.735Z,1007.45
2017-06-16T06:23:17.785Z,1007.5
2017-06-16T06:24:26.989Z,1007.48
2017-06-16T06:25:35.951Z,1007.57
2017-06-16T06:26:45.266Z,1007.63
2017-06-16T06:27:54.223Z,1007.72
2017-06-16T06:29:03.189Z,1007.72
2017-06-16T06:30:12.148Z,1007.85
2017-06-16T06:31:21.120Z,1007.78
2017-06-16T06:32:30.487Z,1007.76
2017-06-16T06:33:39.445Z,1007.81
2017-06-16T06:34:48.452Z,1007.92
2017-06-16T06:35:57.409Z,1007.87
2017-06-16T06:37:06.689Z,1007.96
2017-06-16T06:38:15.644Z,1008.09
2017-06-16T06:39:24.600Z,1008.11
2017-06-16T06:40:33.557Z,1008.07
2017-06-16T06:41:42.608Z,1008.05
2017-06-16T06:42:51.610Z,1008.03
2017-06-16T06:44:00.566Z,1008
2017-06-16T06:45:09.521Z,1008.11
2017-06-16T06:46:18.531Z,1008.08
2017-06-16T06:47:27.484Z,1008.14
2017-06-16T06:48:36.438Z,1008.16
2017-06-16T06:49:45.396Z,1008.17
2017-06-16T06:50:54.349Z,1008.23
2017-06-16T06:52:03.354Z,1008.23
2017-06-16T06:53:12.308Z,1008.2
2017-06-16T06:54:21.261Z,1008.28
2017-06-16T06:55:30.212Z,1008.28
2017-06-16T06:56:39.165Z,1008.32
2017-06-16T06:57:48.117Z,1008.34
2017-06-16T06:58:57.077Z,1008.36
2017-06-16T07:00:06.032Z,1008.38
2017-06-16T07:01:14.988Z,1008.37
2017-06-16T07:02:23.947Z,1008.39
2017-06-16T07:03:32.950Z,1008.4
2017-06-16T07:04:41.941Z,1008.42
2017-06-16T07:05:50.901Z,1008.41
2017-06-16T07:06:59.860Z,1008.43
2017-06-16T07:08:08.822Z,1008.42
2017-06-16T07:09:17.826Z,1008.42
2017-06-16T07:10:26.779Z,1008.44
2017-06-16T07:11:35.738Z,1008.54
2017-06-16T07:12:44.696Z,1008.51
2017-06-16T07:13:53.693Z,1008.6
2017-06-16T07:15:02.696Z,1008.65
2017-06-16T07:16:11.648Z,1008.66
2017-06-16T07:17:20.606Z,1008.7
2017-06-16T07:18:29.563Z,1008.75
2017-06-16T07:19:38.520Z,1008.66
2017-06-16T07:20:47.525Z,1008.64
2017-06-16T07:21:56.569Z,1008.6
2017-06-16T07:23:05.521Z,1008.59
2017-06-16T07:24:14.564Z,1008.54
2017-06-16T07:25:23.862Z,1008.52
2017-06-16T07:26:32.816Z,1008.56
2017-06-16T07:27:41.771Z,1008.51
2017-06-16T07:28:50.731Z,1008.48
2017-06-16T07:29:59.686Z,1008.39
2017-06-16T07:31:08.637Z,1008.28
2017-06-16T07:32:17.641Z,1008.16
2017-06-16T07:33:26.596Z,1008.06
2017-06-16T07:34:35.555Z,1008.04
2017-06-16T07:35:44.598Z,1008.02
2017-06-16T07:36:53.558Z,1008.05
2017-06-16T07:38:02.887Z,1008.1
2017-06-16T07:39:11.843Z,1008.2
2017-06-16T07:40:20.797Z,1008.26
2017-06-16T07:41:29.751Z,1008.33
2017-06-16T07:42:38.748Z,1008.39
2017-06-16T07:43:47.754Z,1008.48
2017-06-16T07:44:56.713Z,1008.5
2017-06-16T07:46:05.664Z,1008.53
2017-06-16T07:47:14.621Z,1008.55
2017-06-16T07:48:23.914Z,1008.6
2017-06-16T07:49:32.868Z,1008.59
2017-06-16T07:50:41.824Z,1008.57
2017-06-16T07:51:50.783Z,1008.56
2017-06-16T07:52:59.736Z,1008.51
2017-06-16T07:54:08.870Z,1008.45
2017-06-16T07:55:18.155Z,1008.52
2017-06-16T07:56:27.122Z,1008.54
2017-06-16T07:57:36.494Z,1008.52
2017-06-16T07:58:45.453Z,1008.55
2017-06-16T07:59:54.404Z,1008.56
2017-06-16T08:01:03.355Z,1008.57
2017-06-16T08:02:12.303Z,1008.61
2017-06-16T08:03:21.257Z,1008.66
2017-06-16T08:04:30.211Z,1008.76
2017-06-16T08:05:39.162Z,1008.85
2017-06-16T08:06:48.173Z,1008.88
2017-06-16T08:07:57.126Z,1008.9
2017-06-16T08:09:06.085Z,1008.9
2017-06-16T08:10:15.039Z,1008.92
2017-06-16T08:11:24.002Z,1008.9
2017-06-16T08:12:32.957Z,1008.95
2017-06-16T08:13:41.914Z,1009.03
2017-06-16T08:14:50.871Z,1009.06
2017-06-16T08:15:59.827Z,1009.01
2017-06-16T08:17:08.790Z,1009.04
2017-06-16T08:18:17.790Z,1009.01
2017-06-16T08:19:26.830Z,1009.03
2017-06-16T08:20:35.782Z,1009.1
2017-06-16T08:21:44.737Z,1009.1
2017-06-16T08:22:53.690Z,1009.02
2017-06-16T08:24:02.697Z,1009.07
2017-06-16T08:25:11.652Z,1009.07
2017-06-16T08:26:20.613Z,1009.01
2017-06-16T08:27:29.566Z,1008.98
2017-06-16T08:28:38.521Z,1009.03
2017-06-16T08:29:47.476Z,1008.97
2017-06-16T08:30:56.435Z,1008.99
2017-06-16T08:32:05.515Z,1008.94
2017-06-16T08:33:14.478Z,1009.05
2017-06-16T08:34:23.436Z,1009.02
2017-06-16T08:35:32.420Z,1009.03
2017-06-16T08:36:41.375Z,1009
2017-06-16T08:37:50.331Z,1009.03
2017-06-16T08:38:59.284Z,1009.02
2017-06-16T08:40:08.331Z,1009.01
2017-06-16T08:41:17.341Z,1009.05
2017-06-16T08:42:26.331Z,1009.03
2017-06-16T08:43:35.285Z,1008.99
2017-06-16T08:44:44.244Z,1008.98
2017-06-16T08:45:53.214Z,1008.96
2017-06-16T08:47:02.164Z,1009
2017-06-16T08:48:11.119Z,1009.05
2017-06-16T08:49:20.073Z,1008.98
2017-06-16T08:50:29.357Z,1009.11
2017-06-16T08:51:38.313Z,1009.09
2017-06-16T08:52:47.358Z,1009.14
2017-06-16T08:53:56.316Z,1009.08
2017-06-16T08:55:05.271Z,1009.12
2017-06-16T08:56:14.231Z,1009.1
2017-06-16T08:57:23.190Z,1009.08
2017-06-16T08:58:32.198Z,1009.15
2017-06-16T08:59:41.154Z,1009.09
2017-06-16T09:00:50.108Z,1009.14
2017-06-16T09:01:59.061Z,1009.18
2017-06-16T09:03:08.020Z,1009.04
2017-06-16T09:04:17.023Z,1009.07
2017-06-16T09:05:25.981Z,1009.14
2017-06-16T09:06:34.941Z,1009.08
2017-06-16T09:07:44.493Z,1009.22
2017-06-16T09:08:53.540Z,1009.07
2017-06-16T09:10:02.494Z,1009.11
2017-06-16T09:11:11.452Z,1009.14
2017-06-16T09:12:20.405Z,1009.03
2017-06-16T09:13:29.360Z,1009.04
2017-06-16T09:14:38.317Z,1009.12
2017-06-16T09:15:47.270Z,1009.12
2017-06-16T09:16:56.227Z,1009.2
2017-06-16T09:18:05.268Z,1009.12
2017-06-16T09:19:14.236Z,1009.25
2017-06-16T09:20:23.193Z,1009.18
2017-06-16T09:21:32.155Z,1009.16
2017-06-16T09:22:41.110Z,1009.15
2017-06-16T09:23:50.070Z,1009.09
2017-06-16T09:24:59.024Z,1009.12
2017-06-16T09:26:07.979Z,1009.17
2017-06-16T09:27:16.983Z,1009.17
2017-06-16T09:28:25.940Z,1009.21
2017-06-16T09:29:34.903Z,1009.07
2017-06-16T09:30:43.908Z,1009.12
2017-06-16T09:31:52.868Z,1009.06
2017-06-16T09:33:01.882Z,1009.13
2017-06-16T09:34:10.838Z,1009.09
2017-06-16T09:35:19.801Z,1009.14
2017-06-16T09:36:28.757Z,1009.1
2017-06-16T09:37:37.708Z,1009.16
2017-06-16T09:38:46.713Z,1009.11
2017-06-16T09:39:55.666Z,1009.12
2017-06-16T09:41:04.624Z,1009.15
2017-06-16T09:42:13.579Z,1009.11
2017-06-16T09:43:22.537Z,1009.16
2017-06-16T09:44:31.495Z,1009.14
2017-06-16T09:45:40.452Z,1009.13
2017-06-16T09:46:49.406Z,1009.13
2017-06-16T09:47:58.358Z,1009.22
2017-06-16T09:49:07.401Z,1009.2
2017-06-16T09:50:16.358Z,1009.18
2017-06-16T09:51:25.405Z,1009.19
2017-06-16T09:52:34.366Z,1009.27
2017-06-16T09:53:43.326Z,1009.21
2017-06-16T09:54:52.280Z,1009.22
2017-06-16T09:56:01.240Z,1009.3
2017-06-16T09:57:10.200Z,1009.25
2017-06-16T09:58:19.166Z,1009.2
2017-06-16T09:59:28.124Z,1009.25
2017-06-16T10:00:37.078Z,1009.2
2017-06-16T10:01:46.126Z,1009.23
2017-06-16T10:02:55.081Z,1009.17
2017-06-16T10:04:04.126Z,1009.2
2017-06-16T10:05:13.083Z,1009.23
2017-06-16T10:06:22.041Z,1009.22
2017-06-16T10:07:31.322Z,1009.13
2017-06-16T10:08:40.290Z,1009.14
2017-06-16T10:09:49.249Z,1009.09
2017-06-16T10:10:58.206Z,1009.13
2017-06-16T10:12:07.160Z,1009.1
2017-06-16T10:13:16.118Z,1009.1
2017-06-16T10:14:25.075Z,1009.07
2017-06-16T10:15:34.032Z,1009.13
2017-06-16T10:16:42.991Z,1009.1
2017-06-16T10:17:51.949Z,1009.06
2017-06-16T10:19:00.991Z,1009.09
2017-06-16T10:20:09.991Z,1009.02
2017-06-16T10:21:18.953Z,1009.02
2017-06-16T10:22:28.249Z,1009.05
2017-06-16T10:23:37.201Z,1008.98
2017-06-16T10:24:46.155Z,1009.11
2017-06-16T10:25:55.110Z,1009
2017-06-16T10:27:04.069Z,1009.02
2017-06-16T10:28:13.029Z,1009.03
2017-06-16T10:29:21.991Z,1009.07
2017-06-16T10:30:31.272Z,1009.13
2017-06-16T10:31:40.233Z,1009.09
2017-06-16T10:32:49.190Z,1009.04
2017-06-16T10:33:58.148Z,1009.08
2017-06-16T10:35:07.104Z,1009.08
2017-06-16T10:36:16.108Z,1009.07
2017-06-16T10:37:25.063Z,1009.03
2017-06-16T10:38:34.017Z,1009.13
2017-06-16T10:39:42.971Z,1009.09
2017-06-16T10:40:51.927Z,1009.08
2017-06-16T10:42:00.937Z,1009.14
2017-06-16T10:43:10.219Z,1009.01
2017-06-16T10:44:19.181Z,1009.04
2017-06-16T10:45:28.230Z,1009.05
2017-06-16T10:46:37.192Z,1008.96
2017-06-16T10:47:46.521Z,1009.05
2017-06-16T10:48:55.477Z,1008.97
2017-06-16T10:50:04.435Z,1008.99
2017-06-16T10:51:13.716Z,1008.98
2017-06-16T10:52:22.674Z,1008.93
2017-06-16T10:53:31.686Z,1008.89
2017-06-16T10:54:40.646Z,1009
2017-06-16T10:55:49.604Z,1008.95
2017-06-16T10:56:58.565Z,1008.92
2017-06-16T10:58:07.527Z,1008.88
2017-06-16T10:59:16.536Z,1008.78
2017-06-16T11:00:25.491Z,1008.83
2017-06-16T11:01:34.454Z,1008.93
2017-06-16T11:02:43.414Z,1008.89
2017-06-16T11:03:52.372Z,1008.81
2017-06-16T11:05:01.378Z,1008.78
2017-06-16T11:06:10.336Z,1008.82
2017-06-16T11:07:19.296Z,1008.9
2017-06-16T11:08:28.252Z,1008.9
2017-06-16T11:09:37.214Z,1008.89
2017-06-16T11:10:46.223Z,1008.9
2017-06-16T11:11:55.183Z,1008.88
2017-06-16T11:13:04.140Z,1008.94
2017-06-16T11:14:13.096Z,1009.06
2017-06-16T11:15:22.047Z,1009.09
2017-06-16T11:16:31.055Z,1009.05
2017-06-16T11:17:40.011Z,1009.07
2017-06-16T11:18:48.973Z,1009.06
2017-06-16T11:19:58.017Z,1009
2017-06-16T11:21:06.974Z,1009.04
2017-06-16T11:22:16.069Z,1009.06
2017-06-16T11:23:25.113Z,1009.09
2017-06-16T11:24:34.077Z,1009.1
2017-06-16T11:25:43.038Z,1009.21
2017-06-16T11:26:51.990Z,1009.15
2017-06-16T11:28:00.994Z,1009.17
2017-06-16T11:29:09.953Z,1009.14
2017-06-16T11:30:18.910Z,1009.13
2017-06-16T11:31:28.300Z,1009.17
2017-06-16T11:32:37.254Z,1009.19
2017-06-16T11:33:46.216Z,1009.11
2017-06-16T11:34:55.174Z,1009.2
2017-06-16T11:36:04.135Z,1009.22
2017-06-16T11:37:13.094Z,1009.3
2017-06-16T11:38:22.050Z,1009.37
2017-06-16T11:39:31.060Z,1009.27
2017-06-16T11:40:40.016Z,1009.19
2017-06-16T11:41:48.974Z,1009.2
2017-06-16T11:42:57.933Z,1009.14
2017-06-16T11:44:06.892Z,1009.17
2017-06-16T11:45:15.898Z,1009.13
2017-06-16T11:46:24.858Z,1009.15
2017-06-16T11:47:33.819Z,1009.15
2017-06-16T11:48:42.858Z,1009.14
2017-06-16T11:49:51.816Z,1009.12
2017-06-16T11:51:00.831Z,1009.14
2017-06-16T11:52:09.875Z,1009.1
2017-06-16T11:53:18.833Z,1009.12
2017-06-16T11:54:28.150Z,1009.07
2017-06-16T11:55:37.190Z,1009.03
2017-06-16T11:56:46.145Z,1009.05
2017-06-16T11:57:55.099Z,1008.99
2017-06-16T11:59:04.057Z,1009.05
2017-06-16T12:00:13.017Z,1009.09
2017-06-16T12:01:22.060Z,1009.17
2017-06-16T12:02:31.151Z,1009.17
2017-06-16T12:03:40.149Z,1009.19
2017-06-16T12:04:49.104Z,1009.11
2017-06-16T12:05:58.073Z,1009.16
2017-06-16T12:07:07.027Z,1009.22
2017-06-16T12:08:16.034Z,1009.09
2017-06-16T12:09:24.992Z,1009.18
2017-06-16T12:10:34.036Z,1009.11
2017-06-16T12:11:42.993Z,1009.2
2017-06-16T12:12:51.948Z,1009.21
2017-06-16T12:14:00.904Z,1009.24
2017-06-16T12:15:09.865Z,1009.26
2017-06-16T12:16:18.826Z,1009.24
2017-06-16T12:17:27.785Z,1009.19
2017-06-16T12:18:36.742Z,1009.25
2017-06-16T12:19:45.746Z,1009.26
2017-06-16T12:20:54.700Z,1009.2
2017-06-16T12:22:03.656Z,1009.23
2017-06-16T12:23:12.610Z,1009.36
2017-06-16T12:24:21.565Z,1009.41
2017-06-16T12:25:30.925Z,1009.44
2017-06-16T12:26:39.883Z,1009.54
2017-06-16T12:27:48.838Z,1009.56
2017-06-16T12:28:57.790Z,1009.6
2017-06-16T12:30:07.071Z,1009.68
2017-06-16T12:31:16.081Z,1009.72
2017-06-16T12:32:25.037Z,1009.64
2017-06-16T12:33:33.998Z,1009.59
2017-06-16T12:34:43.046Z,1009.58
2017-06-16T12:35:52.004Z,1009.58
2017-06-16T12:37:01.010Z,1009.54
2017-06-16T12:38:09.964Z,1009.52
2017-06-16T12:39:18.923Z,1009.66
2017-06-16T12:40:27.882Z,1009.62
2017-06-16T12:41:36.842Z,1009.52
2017-06-16T12:42:45.804Z,1009.53
2017-06-16T12:43:55.083Z,1009.59
2017-06-16T12:45:04.043Z,1009.57
2017-06-16T12:46:13.000Z,1009.54
2017-06-16T12:47:21.955Z,1009.53
2017-06-16T12:48:30.963Z,1009.51
2017-06-16T12:49:39.925Z,1009.49
2017-06-16T12:50:48.877Z,1009.45
2017-06-16T12:51:57.835Z,1009.39
2017-06-16T12:53:06.795Z,1009.48
2017-06-16T12:54:15.756Z,1009.42
2017-06-16T12:55:24.712Z,1009.46
2017-06-16T12:56:33.671Z,1009.47
2017-06-16T12:57:42.633Z,1009.5
2017-06-16T12:58:51.675Z,1009.46
2017-06-16T13:00:00.717Z,1009.45
2017-06-16T13:01:09.667Z,1009.5
2017-06-16T13:02:18.624Z,1009.5
2017-06-16T13:03:27.577Z,1009.48
2017-06-16T13:04:36.533Z,1009.41
2017-06-16T13:05:45.487Z,1009.42
2017-06-16T13:06:54.442Z,1009.53
2017-06-16T13:08:03.403Z,1009.5
2017-06-16T13:09:12.356Z,1009.55
2017-06-16T13:10:21.314Z,1009.51
2017-06-16T13:11:30.269Z,1009.57
2017-06-16T13:12:39.237Z,1009.59
2017-06-16T13:13:48.198Z,1009.67
2017-06-16T13:14:57.157Z,1009.83
2017-06-16T13:16:06.117Z,1009.82
2017-06-16T13:17:15.123Z,1009.94
2017-06-16T13:18:24.180Z,1009.79
2017-06-16T13:19:33.135Z,1009.94
2017-06-16T13:20:42.177Z,1010.06
2017-06-16T13:21:51.137Z,1010.18
2017-06-16T13:23:00.145Z,1010.19
2017-06-16T13:24:09.111Z,1010.27
2017-06-16T13:25:18.075Z,1010.25
2017-06-16T13:26:27.036Z,1010.26
2017-06-16T13:27:35.997Z,1010.29
2017-06-16T13:28:45.026Z,1010.28
2017-06-16T13:29:54.074Z,1010.31
2017-06-16T13:31:03.029Z,1010.21
2017-06-16T13:32:11.987Z,1010.21
2017-06-16T13:33:21.029Z,1010.09
2017-06-16T13:34:30.006Z,1010.1
2017-06-16T13:35:38.963Z,1009.99
2017-06-16T13:36:47.914Z,1010
2017-06-16T13:37:56.874Z,1009.97
2017-06-16T13:39:05.828Z,1009.84
2017-06-16T13:40:14.831Z,1009.81
2017-06-16T13:41:24.128Z,1009.75
2017-06-16T13:42:33.083Z,1009.66
2017-06-16T13:43:42.038Z,1009.52
2017-06-16T13:44:50.993Z,1009.52
2017-06-16T13:46:00.004Z,1009.44
2017-06-16T13:47:08.956Z,1009.43
2017-06-16T13:48:18.001Z,1009.36
2017-06-16T13:49:26.956Z,1009.43
2017-06-16T13:50:35.905Z,1009.47
2017-06-16T13:51:44.908Z,1009.51
2017-06-16T13:52:53.870Z,1009.52
2017-06-16T13:54:02.823Z,1009.59
2017-06-16T13:55:11.860Z,1009.63
2017-06-16T13:56:20.814Z,1009.65
2017-06-16T13:57:29.818Z,1009.7
2017-06-16T13:58:38.772Z,1009.61